sensor_id;sensor_type;location;lat;lon;timestamp;P1;durP1;ratioP1;P2;durP2;ratioP2
56893;SDS011;43392;50.078;13.704;2023-04-03T00:01:15;7.22;;;3.80;;
56893;SDS011;43392;50.078;13.704;2023-04-03T00:03:42;7.78;;;3.30;;
56893;SDS011;43392;50.078;13.704;2023-04-03T00:06:10;7.88;;;3.17;;
56893;SDS011;43392;50.078;13.704;2023-04-03T00:08:38;6.97;;;3.50;;
56893;SDS011;43392;50.078;13.704;2023-04-03T00:11:05;6.60;;;3.15;;
56893;SDS011;43392;50.078;13.704;2023-04-03T00:13:32;7.25;;;3.40;;
56893;SDS011;43392;50.078;13.704;2023-04-03T00:15:59;9.40;;;3.25;;
56893;SDS011;43392;50.078;13.704;2023-04-03T00:18:26;7.60;;;3.20;;
56893;SDS011;43392;50.078;13.704;2023-04-03T00:20:53;8.50;;;3.38;;
56893;SDS011;43392;50.078;13.704;2023-04-03T00:23:21;10.05;;;3.13;;
56893;SDS011;43392;50.078;13.704;2023-04-03T00:25:48;6.97;;;3.08;;
56893;SDS011;43392;50.078;13.704;2023-04-03T00:28:15;8.13;;;3.55;;
56893;SDS011;43392;50.078;13.704;2023-04-03T00:30:42;7.15;;;3.20;;
56893;SDS011;43392;50.078;13.704;2023-04-03T00:33:09;8.02;;;3.22;;
56893;SDS011;43392;50.078;13.704;2023-04-03T00:35:37;12.98;;;3.67;;
56893;SDS011;43392;50.078;13.704;2023-04-03T00:38:04;6.45;;;3.25;;
56893;SDS011;43392;50.078;13.704;2023-04-03T00:40:35;8.93;;;3.20;;
56893;SDS011;43392;50.078;13.704;2023-04-03T00:43:05;9.05;;;3.08;;
56893;SDS011;43392;50.078;13.704;2023-04-03T00:45:38;6.45;;;2.97;;
56893;SDS011;43392;50.078;13.704;2023-04-03T00:48:07;5.93;;;2.95;;
56893;SDS011;43392;50.078;13.704;2023-04-03T00:50:37;6.57;;;2.80;;
56893;SDS011;43392;50.078;13.704;2023-04-03T00:53:06;6.53;;;2.65;;
56893;SDS011;43392;50.078;13.704;2023-04-03T00:55:37;9.45;;;3.30;;
56893;SDS011;43392;50.078;13.704;2023-04-03T00:58:05;8.45;;;3.13;;
56893;SDS011;43392;50.078;13.704;2023-04-03T01:00:33;8.70;;;3.50;;
56893;SDS011;43392;50.078;13.704;2023-04-03T01:03:02;6.50;;;2.85;;
56893;SDS011;43392;50.078;13.704;2023-04-03T01:05:28;7.65;;;2.88;;
56893;SDS011;43392;50.078;13.704;2023-04-03T01:07:55;8.05;;;2.80;;
56893;SDS011;43392;50.078;13.704;2023-04-03T01:10:24;7.55;;;3.15;;
56893;SDS011;43392;50.078;13.704;2023-04-03T01:12:52;8.02;;;3.00;;
56893;SDS011;43392;50.078;13.704;2023-04-03T01:15:19;7.43;;;3.00;;
56893;SDS011;43392;50.078;13.704;2023-04-03T01:17:48;9.25;;;3.13;;
56893;SDS011;43392;50.078;13.704;2023-04-03T01:20:30;5.82;;;2.85;;
56893;SDS011;43392;50.078;13.704;2023-04-03T01:23:25;8.35;;;2.78;;
56893;SDS011;43392;50.078;13.704;2023-04-03T01:25:59;8.27;;;3.15;;
56893;SDS011;43392;50.078;13.704;2023-04-03T01:28:27;7.35;;;2.63;;
56893;SDS011;43392;50.078;13.704;2023-04-03T01:30:58;7.35;;;3.10;;
56893;SDS011;43392;50.078;13.704;2023-04-03T01:33:32;7.93;;;2.90;;
56893;SDS011;43392;50.078;13.704;2023-04-03T01:35:58;6.82;;;2.80;;
56893;SDS011;43392;50.078;13.704;2023-04-03T01:38:25;6.03;;;2.63;;
56893;SDS011;43392;50.078;13.704;2023-04-03T01:40:52;8.55;;;2.92;;
56893;SDS011;43392;50.078;13.704;2023-04-03T01:43:18;7.45;;;3.17;;
56893;SDS011;43392;50.078;13.704;2023-04-03T01:45:45;10.70;;;3.17;;
56893;SDS011;43392;50.078;13.704;2023-04-03T01:48:14;6.22;;;2.88;;
56893;SDS011;43392;50.078;13.704;2023-04-03T01:50:42;7.22;;;2.35;;
56893;SDS011;43392;50.078;13.704;2023-04-03T01:53:10;5.45;;;2.50;;
56893;SDS011;43392;50.078;13.704;2023-04-03T01:55:36;6.50;;;2.50;;
56893;SDS011;43392;50.078;13.704;2023-04-03T01:58:03;6.53;;;3.03;;
56893;SDS011;43392;50.078;13.704;2023-04-03T02:00:29;7.70;;;2.88;;
56893;SDS011;43392;50.078;13.704;2023-04-03T02:02:56;8.18;;;3.03;;
56893;SDS011;43392;50.078;13.704;2023-04-03T02:05:23;10.80;;;3.13;;
56893;SDS011;43392;50.078;13.704;2023-04-03T02:07:51;9.18;;;2.85;;
56893;SDS011;43392;50.078;13.704;2023-04-03T02:10:17;8.52;;;2.30;;
56893;SDS011;43392;50.078;13.704;2023-04-03T02:12:44;6.35;;;2.58;;
56893;SDS011;43392;50.078;13.704;2023-04-03T02:15:10;8.35;;;2.25;;
56893;SDS011;43392;50.078;13.704;2023-04-03T02:17:37;7.03;;;2.33;;
56893;SDS011;43392;50.078;13.704;2023-04-03T02:20:04;5.72;;;2.28;;
56893;SDS011;43392;50.078;13.704;2023-04-03T02:22:31;7.80;;;2.30;;
56893;SDS011;43392;50.078;13.704;2023-04-03T02:24:59;5.03;;;2.05;;
56893;SDS011;43392;50.078;13.704;2023-04-03T02:27:26;7.20;;;2.70;;
56893;SDS011;43392;50.078;13.704;2023-04-03T02:29:53;7.25;;;2.05;;
56893;SDS011;43392;50.078;13.704;2023-04-03T02:32:19;6.93;;;2.22;;
56893;SDS011;43392;50.078;13.704;2023-04-03T02:34:46;8.20;;;2.15;;
56893;SDS011;43392;50.078;13.704;2023-04-03T02:37:13;7.25;;;1.88;;
56893;SDS011;43392;50.078;13.704;2023-04-03T02:39:39;6.18;;;1.95;;
56893;SDS011;43392;50.078;13.704;2023-04-03T02:42:07;8.30;;;2.40;;
56893;SDS011;43392;50.078;13.704;2023-04-03T02:44:34;6.47;;;2.28;;
56893;SDS011;43392;50.078;13.704;2023-04-03T02:47:00;7.82;;;2.15;;
56893;SDS011;43392;50.078;13.704;2023-04-03T02:49:27;5.45;;;1.98;;
56893;SDS011;43392;50.078;13.704;2023-04-03T02:51:54;6.95;;;2.42;;
56893;SDS011;43392;50.078;13.704;2023-04-03T02:54:20;7.20;;;2.38;;
56893;SDS011;43392;50.078;13.704;2023-04-03T02:56:48;7.18;;;2.17;;
56893;SDS011;43392;50.078;13.704;2023-04-03T02:59:16;7.10;;;2.00;;
56893;SDS011;43392;50.078;13.704;2023-04-03T03:01:43;6.45;;;1.90;;
56893;SDS011;43392;50.078;13.704;2023-04-03T03:04:09;7.22;;;2.10;;
56893;SDS011;43392;50.078;13.704;2023-04-03T03:06:36;5.78;;;2.13;;
56893;SDS011;43392;50.078;13.704;2023-04-03T03:09:03;6.00;;;2.03;;
56893;SDS011;43392;50.078;13.704;2023-04-03T03:11:29;6.88;;;2.53;;
56893;SDS011;43392;50.078;13.704;2023-04-03T03:13:56;5.78;;;2.67;;
56893;SDS011;43392;50.078;13.704;2023-04-03T03:16:25;6.22;;;1.92;;
56893;SDS011;43392;50.078;13.704;2023-04-03T03:18:51;7.68;;;1.88;;
56893;SDS011;43392;50.078;13.704;2023-04-03T03:21:18;10.20;;;1.90;;
56893;SDS011;43392;50.078;13.704;2023-04-03T03:23:45;10.23;;;2.22;;
56893;SDS011;43392;50.078;13.704;2023-04-03T03:26:11;7.28;;;2.25;;
56893;SDS011;43392;50.078;13.704;2023-04-03T03:28:38;6.93;;;2.80;;
56893;SDS011;43392;50.078;13.704;2023-04-03T03:31:05;9.45;;;3.03;;
56893;SDS011;43392;50.078;13.704;2023-04-03T03:33:34;9.93;;;3.45;;
56893;SDS011;43392;50.078;13.704;2023-04-03T03:36:01;9.48;;;3.08;;
56893;SDS011;43392;50.078;13.704;2023-04-03T03:38:27;9.40;;;2.95;;
56893;SDS011;43392;50.078;13.704;2023-04-03T03:40:54;9.55;;;3.55;;
56893;SDS011;43392;50.078;13.704;2023-04-03T03:43:21;10.27;;;3.95;;
56893;SDS011;43392;50.078;13.704;2023-04-03T03:45:49;9.88;;;3.90;;
56893;SDS011;43392;50.078;13.704;2023-04-03T03:48:17;11.60;;;3.50;;
56893;SDS011;43392;50.078;13.704;2023-04-03T03:50:46;10.70;;;3.50;;
56893;SDS011;43392;50.078;13.704;2023-04-03T03:53:13;7.78;;;2.00;;
56893;SDS011;43392;50.078;13.704;2023-04-03T03:55:40;6.22;;;2.00;;
56893;SDS011;43392;50.078;13.704;2023-04-03T03:58:07;6.03;;;2.00;;
56893;SDS011;43392;50.078;13.704;2023-04-03T04:00:33;5.03;;;1.65;;
56893;SDS011;43392;50.078;13.704;2023-04-03T04:03:00;5.22;;;1.85;;
56893;SDS011;43392;50.078;13.704;2023-04-03T04:05:27;7.90;;;1.80;;
56893;SDS011;43392;50.078;13.704;2023-04-03T04:07:55;5.40;;;1.95;;
56893;SDS011;43392;50.078;13.704;2023-04-03T04:10:21;4.78;;;2.50;;
56893;SDS011;43392;50.078;13.704;2023-04-03T04:12:48;6.22;;;1.67;;
56893;SDS011;43392;50.078;13.704;2023-04-03T04:15:16;7.32;;;1.92;;
56893;SDS011;43392;50.078;13.704;2023-04-03T04:17:43;4.53;;;1.80;;
56893;SDS011;43392;50.078;13.704;2023-04-03T04:20:10;8.52;;;1.73;;
56893;SDS011;43392;50.078;13.704;2023-04-03T04:22:37;6.65;;;1.80;;
56893;SDS011;43392;50.078;13.704;2023-04-03T04:25:06;6.85;;;1.70;;
56893;SDS011;43392;50.078;13.704;2023-04-03T04:27:33;7.00;;;2.17;;
56893;SDS011;43392;50.078;13.704;2023-04-03T04:30:00;4.70;;;1.60;;
56893;SDS011;43392;50.078;13.704;2023-04-03T04:32:26;5.53;;;1.77;;
56893;SDS011;43392;50.078;13.704;2023-04-03T04:34:53;4.63;;;2.13;;
56893;SDS011;43392;50.078;13.704;2023-04-03T04:37:20;6.55;;;2.20;;
56893;SDS011;43392;50.078;13.704;2023-04-03T04:39:46;8.43;;;2.55;;
56893;SDS011;43392;50.078;13.704;2023-04-03T04:42:14;9.05;;;3.40;;
56893;SDS011;43392;50.078;13.704;2023-04-03T04:44:41;8.30;;;3.08;;
56893;SDS011;43392;50.078;13.704;2023-04-03T04:47:08;8.30;;;2.80;;
56893;SDS011;43392;50.078;13.704;2023-04-03T04:49:35;10.13;;;3.95;;
56893;SDS011;43392;50.078;13.704;2023-04-03T04:52:01;8.10;;;3.88;;
56893;SDS011;43392;50.078;13.704;2023-04-03T04:54:28;13.23;;;4.63;;
56893;SDS011;43392;50.078;13.704;2023-04-03T04:56:55;11.52;;;4.53;;
56893;SDS011;43392;50.078;13.704;2023-04-03T04:59:22;11.43;;;4.75;;
56893;SDS011;43392;50.078;13.704;2023-04-03T05:01:49;12.45;;;4.43;;
56893;SDS011;43392;50.078;13.704;2023-04-03T05:04:16;6.07;;;2.03;;
56893;SDS011;43392;50.078;13.704;2023-04-03T05:06:42;10.95;;;2.50;;
56893;SDS011;43392;50.078;13.704;2023-04-03T05:09:09;7.28;;;2.00;;
56893;SDS011;43392;50.078;13.704;2023-04-03T05:11:36;5.72;;;2.20;;
56893;SDS011;43392;50.078;13.704;2023-04-03T05:14:02;8.30;;;2.67;;
56893;SDS011;43392;50.078;13.704;2023-04-03T05:16:32;8.82;;;1.83;;
56893;SDS011;43392;50.078;13.704;2023-04-03T05:18:59;6.32;;;1.98;;
56893;SDS011;43392;50.078;13.704;2023-04-03T05:21:26;6.95;;;2.40;;
56893;SDS011;43392;50.078;13.704;2023-04-03T05:23:56;8.02;;;2.15;;
56893;SDS011;43392;50.078;13.704;2023-04-03T05:26:23;6.20;;;2.20;;
56893;SDS011;43392;50.078;13.704;2023-04-03T05:28:50;6.25;;;2.35;;
56893;SDS011;43392;50.078;13.704;2023-04-03T05:31:17;4.90;;;2.25;;
56893;SDS011;43392;50.078;13.704;2023-04-03T05:33:45;7.35;;;2.25;;
56893;SDS011;43392;50.078;13.704;2023-04-03T05:36:11;8.88;;;2.30;;
56893;SDS011;43392;50.078;13.704;2023-04-03T05:38:38;6.93;;;2.53;;
56893;SDS011;43392;50.078;13.704;2023-04-03T05:41:05;5.45;;;2.25;;
56893;SDS011;43392;50.078;13.704;2023-04-03T05:43:32;7.03;;;2.13;;
56893;SDS011;43392;50.078;13.704;2023-04-03T05:45:59;6.40;;;2.35;;
56893;SDS011;43392;50.078;13.704;2023-04-03T05:48:26;5.45;;;2.10;;
56893;SDS011;43392;50.078;13.704;2023-04-03T05:50:54;6.93;;;2.05;;
56893;SDS011;43392;50.078;13.704;2023-04-03T05:53:21;8.00;;;2.38;;
56893;SDS011;43392;50.078;13.704;2023-04-03T05:55:51;5.80;;;2.10;;
56893;SDS011;43392;50.078;13.704;2023-04-03T05:58:18;5.03;;;2.05;;
56893;SDS011;43392;50.078;13.704;2023-04-03T06:00:45;7.25;;;2.33;;
56893;SDS011;43392;50.078;13.704;2023-04-03T06:03:12;6.22;;;2.25;;
56893;SDS011;43392;50.078;13.704;2023-04-03T06:05:38;6.88;;;2.45;;
56893;SDS011;43392;50.078;13.704;2023-04-03T06:08:06;4.78;;;1.80;;
56893;SDS011;43392;50.078;13.704;2023-04-03T06:10:34;8.15;;;2.40;;
56893;SDS011;43392;50.078;13.704;2023-04-03T06:13:01;8.60;;;2.50;;
56893;SDS011;43392;50.078;13.704;2023-04-03T06:15:28;8.27;;;2.50;;
56893;SDS011;43392;50.078;13.704;2023-04-03T06:17:54;9.10;;;2.20;;
56893;SDS011;43392;50.078;13.704;2023-04-03T06:20:21;5.55;;;2.00;;
56893;SDS011;43392;50.078;13.704;2023-04-03T06:22:48;8.38;;;2.90;;
56893;SDS011;43392;50.078;13.704;2023-04-03T06:25:17;10.52;;;2.15;;
56893;SDS011;43392;50.078;13.704;2023-04-03T06:27:43;7.93;;;2.50;;
56893;SDS011;43392;50.078;13.704;2023-04-03T06:30:10;6.80;;;2.13;;
56893;SDS011;43392;50.078;13.704;2023-04-03T06:32:37;7.07;;;2.20;;
56893;SDS011;43392;50.078;13.704;2023-04-03T06:35:05;5.28;;;1.95;;
56893;SDS011;43392;50.078;13.704;2023-04-03T06:37:32;7.50;;;2.42;;
56893;SDS011;43392;50.078;13.704;2023-04-03T06:39:58;8.73;;;2.42;;
56893;SDS011;43392;50.078;13.704;2023-04-03T06:42:27;9.35;;;2.63;;
56893;SDS011;43392;50.078;13.704;2023-04-03T06:44:54;9.05;;;2.05;;
56893;SDS011;43392;50.078;13.704;2023-04-03T06:47:20;7.43;;;2.25;;
56893;SDS011;43392;50.078;13.704;2023-04-03T06:49:47;7.57;;;2.30;;
56893;SDS011;43392;50.078;13.704;2023-04-03T06:52:14;7.22;;;2.13;;
56893;SDS011;43392;50.078;13.704;2023-04-03T06:54:40;7.35;;;2.30;;
56893;SDS011;43392;50.078;13.704;2023-04-03T06:57:07;6.30;;;2.78;;
56893;SDS011;43392;50.078;13.704;2023-04-03T06:59:35;7.10;;;2.78;;
56893;SDS011;43392;50.078;13.704;2023-04-03T07:04:32;8.43;;;2.30;;
56893;SDS011;43392;50.078;13.704;2023-04-03T07:06:58;8.02;;;2.45;;
56893;SDS011;43392;50.078;13.704;2023-04-03T07:09:25;8.18;;;2.38;;
56893;SDS011;43392;50.078;13.704;2023-04-03T07:11:52;9.20;;;2.35;;
56893;SDS011;43392;50.078;13.704;2023-04-03T07:14:18;7.18;;;2.42;;
56893;SDS011;43392;50.078;13.704;2023-04-03T07:16:47;8.15;;;2.33;;
56893;SDS011;43392;50.078;13.704;2023-04-03T07:19:14;6.57;;;2.42;;
56893;SDS011;43392;50.078;13.704;2023-04-03T07:21:43;4.50;;;1.85;;
56893;SDS011;43392;50.078;13.704;2023-04-03T07:24:09;6.00;;;2.35;;
56893;SDS011;43392;50.078;13.704;2023-04-03T07:26:36;6.38;;;2.00;;
56893;SDS011;43392;50.078;13.704;2023-04-03T07:29:03;7.15;;;2.22;;
56893;SDS011;43392;50.078;13.704;2023-04-03T07:31:30;6.53;;;2.60;;
56893;SDS011;43392;50.078;13.704;2023-04-03T07:33:58;8.82;;;2.60;;
56893;SDS011;43392;50.078;13.704;2023-04-03T07:36:24;5.28;;;2.17;;
56893;SDS011;43392;50.078;13.704;2023-04-03T07:38:51;6.38;;;2.22;;
56893;SDS011;43392;50.078;13.704;2023-04-03T07:41:18;7.32;;;2.45;;
56893;SDS011;43392;50.078;13.704;2023-04-03T07:43:47;4.80;;;2.38;;
56893;SDS011;43392;50.078;13.704;2023-04-03T07:46:14;4.90;;;2.35;;
56893;SDS011;43392;50.078;13.704;2023-04-03T07:48:42;6.43;;;2.47;;
56893;SDS011;43392;50.078;13.704;2023-04-03T07:51:11;6.35;;;2.03;;
56893;SDS011;43392;50.078;13.704;2023-04-03T07:53:38;11.18;;;2.72;;
56893;SDS011;43392;50.078;13.704;2023-04-03T07:56:05;9.95;;;2.55;;
56893;SDS011;43392;50.078;13.704;2023-04-03T07:58:32;7.78;;;2.30;;
56893;SDS011;43392;50.078;13.704;2023-04-03T08:00:59;6.50;;;2.50;;
56893;SDS011;43392;50.078;13.704;2023-04-03T08:03:25;5.45;;;2.40;;
56893;SDS011;43392;50.078;13.704;2023-04-03T08:05:52;5.63;;;2.10;;
56893;SDS011;43392;50.078;13.704;2023-04-03T08:08:21;5.63;;;1.77;;
56893;SDS011;43392;50.078;13.704;2023-04-03T08:10:49;6.10;;;2.00;;
56893;SDS011;43392;50.078;13.704;2023-04-03T08:13:16;8.63;;;2.72;;
56893;SDS011;43392;50.078;13.704;2023-04-03T08:15:43;8.50;;;2.30;;
56893;SDS011;43392;50.078;13.704;2023-04-03T08:18:10;6.10;;;2.30;;
56893;SDS011;43392;50.078;13.704;2023-04-03T08:20:37;7.50;;;2.20;;
56893;SDS011;43392;50.078;13.704;2023-04-03T08:23:05;5.85;;;2.58;;
56893;SDS011;43392;50.078;13.704;2023-04-03T08:25:33;4.40;;;1.90;;
56893;SDS011;43392;50.078;13.704;2023-04-03T08:27:59;4.78;;;2.05;;
56893;SDS011;43392;50.078;13.704;2023-04-03T08:30:27;6.20;;;2.22;;
56893;SDS011;43392;50.078;13.704;2023-04-03T08:32:53;6.40;;;2.00;;
56893;SDS011;43392;50.078;13.704;2023-04-03T08:35:20;5.20;;;1.75;;
56893;SDS011;43392;50.078;13.704;2023-04-03T08:37:46;6.82;;;1.98;;
56893;SDS011;43392;50.078;13.704;2023-04-03T08:40:14;6.43;;;2.10;;
56893;SDS011;43392;50.078;13.704;2023-04-03T08:42:46;4.13;;;1.70;;
56893;SDS011;43392;50.078;13.704;2023-04-03T08:45:21;8.13;;;3.10;;
56893;SDS011;43392;50.078;13.704;2023-04-03T08:47:55;6.70;;;2.17;;
56893;SDS011;43392;50.078;13.704;2023-04-03T08:50:29;4.60;;;1.85;;
56893;SDS011;43392;50.078;13.704;2023-04-03T08:52:59;5.03;;;1.90;;
56893;SDS011;43392;50.078;13.704;2023-04-03T08:55:31;3.90;;;1.60;;
56893;SDS011;43392;50.078;13.704;2023-04-03T08:58:02;5.95;;;1.70;;
56893;SDS011;43392;50.078;13.704;2023-04-03T09:00:32;8.07;;;2.35;;
56893;SDS011;43392;50.078;13.704;2023-04-03T09:03:10;4.53;;;1.90;;
56893;SDS011;43392;50.078;13.704;2023-04-03T09:05:39;5.10;;;1.52;;
56893;SDS011;43392;50.078;13.704;2023-04-03T09:08:12;4.93;;;1.98;;
56893;SDS011;43392;50.078;13.704;2023-04-03T09:10:47;5.00;;;1.77;;
56893;SDS011;43392;50.078;13.704;2023-04-03T09:13:21;9.63;;;2.45;;
56893;SDS011;43392;50.078;13.704;2023-04-03T09:15:53;3.20;;;1.80;;
56893;SDS011;43392;50.078;13.704;2023-04-03T09:18:21;4.60;;;1.80;;
56893;SDS011;43392;50.078;13.704;2023-04-03T09:20:54;3.95;;;1.50;;
56893;SDS011;43392;50.078;13.704;2023-04-03T09:23:28;2.95;;;1.38;;
56893;SDS011;43392;50.078;13.704;2023-04-03T09:26:01;6.45;;;1.52;;
56893;SDS011;43392;50.078;13.704;2023-04-03T09:28:33;4.63;;;1.95;;
56893;SDS011;43392;50.078;13.704;2023-04-03T09:31:06;5.55;;;2.00;;
56893;SDS011;43392;50.078;13.704;2023-04-03T09:33:44;5.90;;;1.85;;
56893;SDS011;43392;50.078;13.704;2023-04-03T09:36:12;4.00;;;1.70;;
56893;SDS011;43392;50.078;13.704;2023-04-03T09:38:39;4.40;;;1.70;;
56893;SDS011;43392;50.078;13.704;2023-04-03T09:41:06;3.85;;;1.60;;
56893;SDS011;43392;50.078;13.704;2023-04-03T09:43:35;7.72;;;1.70;;
56893;SDS011;43392;50.078;13.704;2023-04-03T09:48:58;4.80;;;1.40;;
56893;SDS011;43392;50.078;13.704;2023-04-03T09:51:26;4.85;;;1.35;;
56893;SDS011;43392;50.078;13.704;2023-04-03T09:53:54;4.65;;;1.77;;
56893;SDS011;43392;50.078;13.704;2023-04-03T09:56:22;3.90;;;1.35;;
56893;SDS011;43392;50.078;13.704;2023-04-03T09:59:04;9.98;;;2.97;;
56893;SDS011;43392;50.078;13.704;2023-04-03T10:01:35;2.80;;;1.40;;
56893;SDS011;43392;50.078;13.704;2023-04-03T10:04:04;5.47;;;2.00;;
56893;SDS011;43392;50.078;13.704;2023-04-03T10:06:34;19.65;;;2.67;;
56893;SDS011;43392;50.078;13.704;2023-04-03T10:09:02;3.35;;;1.30;;
56893;SDS011;43392;50.078;13.704;2023-04-03T10:11:32;5.72;;;1.95;;
56893;SDS011;43392;50.078;13.704;2023-04-03T10:14:01;3.85;;;1.85;;
56893;SDS011;43392;50.078;13.704;2023-04-03T10:16:32;4.10;;;1.50;;
56893;SDS011;43392;50.078;13.704;2023-04-03T10:19:14;4.28;;;1.65;;
56893;SDS011;43392;50.078;13.704;2023-04-03T10:21:58;7.75;;;1.80;;
56893;SDS011;43392;50.078;13.704;2023-04-03T10:24:30;7.15;;;1.65;;
56893;SDS011;43392;50.078;13.704;2023-04-03T10:27:10;7.75;;;1.77;;
56893;SDS011;43392;50.078;13.704;2023-04-03T10:29:42;5.35;;;1.45;;
56893;SDS011;43392;50.078;13.704;2023-04-03T10:32:33;3.88;;;1.45;;
56893;SDS011;43392;50.078;13.704;2023-04-03T10:35:18;4.57;;;1.70;;
56893;SDS011;43392;50.078;13.704;2023-04-03T10:37:57;3.58;;;1.50;;
56893;SDS011;43392;50.078;13.704;2023-04-03T10:40:30;4.18;;;1.60;;
56893;SDS011;43392;50.078;13.704;2023-04-03T10:43:06;4.78;;;1.95;;
56893;SDS011;43392;50.078;13.704;2023-04-03T10:45:47;6.00;;;1.88;;
56893;SDS011;43392;50.078;13.704;2023-04-03T10:48:23;8.35;;;2.45;;
56893;SDS011;43392;50.078;13.704;2023-04-03T10:51:00;6.47;;;2.45;;
56893;SDS011;43392;50.078;13.704;2023-04-03T10:53:37;7.75;;;2.28;;
56893;SDS011;43392;50.078;13.704;2023-04-03T10:56:09;5.30;;;1.77;;
56893;SDS011;43392;50.078;13.704;2023-04-03T10:58:43;3.92;;;1.60;;
56893;SDS011;43392;50.078;13.704;2023-04-03T11:01:13;4.13;;;1.60;;
56893;SDS011;43392;50.078;13.704;2023-04-03T11:03:43;2.80;;;1.42;;
56893;SDS011;43392;50.078;13.704;2023-04-03T11:06:12;6.28;;;1.40;;
56893;SDS011;43392;50.078;13.704;2023-04-03T11:08:42;4.20;;;1.55;;
56893;SDS011;43392;50.078;13.704;2023-04-03T11:11:13;3.75;;;1.58;;
56893;SDS011;43392;50.078;13.704;2023-04-03T11:13:43;6.60;;;1.67;;
56893;SDS011;43392;50.078;13.704;2023-04-03T11:16:17;6.10;;;1.60;;
56893;SDS011;43392;50.078;13.704;2023-04-03T11:18:49;4.70;;;1.38;;
56893;SDS011;43392;50.078;13.704;2023-04-03T11:21:20;4.10;;;1.73;;
56893;SDS011;43392;50.078;13.704;2023-04-03T11:23:52;3.65;;;1.55;;
56893;SDS011;43392;50.078;13.704;2023-04-03T11:26:24;7.20;;;1.73;;
56893;SDS011;43392;50.078;13.704;2023-04-03T11:28:58;3.75;;;1.45;;
56893;SDS011;43392;50.078;13.704;2023-04-03T11:31:32;3.90;;;1.33;;
56893;SDS011;43392;50.078;13.704;2023-04-03T11:34:13;8.02;;;1.67;;
56893;SDS011;43392;50.078;13.704;2023-04-03T11:36:51;4.15;;;1.90;;
56893;SDS011;43392;50.078;13.704;2023-04-03T11:39:22;5.72;;;1.60;;
56893;SDS011;43392;50.078;13.704;2023-04-03T11:41:51;2.75;;;1.42;;
56893;SDS011;43392;50.078;13.704;2023-04-03T11:44:29;3.22;;;1.30;;
56893;SDS011;43392;50.078;13.704;2023-04-03T11:47:01;4.75;;;1.75;;
56893;SDS011;43392;50.078;13.704;2023-04-03T11:58:18;5.03;;;2.10;;
56893;SDS011;43392;50.078;13.704;2023-04-03T12:00:53;3.88;;;1.65;;
56893;SDS011;43392;50.078;13.704;2023-04-03T12:12:43;4.97;;;1.80;;
56893;SDS011;43392;50.078;13.704;2023-04-03T12:15:26;5.22;;;1.63;;
56893;SDS011;43392;50.078;13.704;2023-04-03T12:21:17;4.93;;;2.10;;
56893;SDS011;43392;50.078;13.704;2023-04-03T12:24:12;4.55;;;1.73;;
56893;SDS011;43392;50.078;13.704;2023-04-03T12:27:02;4.63;;;1.90;;
56893;SDS011;43392;50.078;13.704;2023-04-03T12:29:33;5.60;;;1.65;;
56893;SDS011;43392;50.078;13.704;2023-04-03T12:32:08;5.25;;;1.60;;
56893;SDS011;43392;50.078;13.704;2023-04-03T12:35:02;5.97;;;1.80;;
56893;SDS011;43392;50.078;13.704;2023-04-03T12:37:40;5.63;;;2.22;;
56893;SDS011;43392;50.078;13.704;2023-04-03T12:40:19;5.22;;;1.92;;
56893;SDS011;43392;50.078;13.704;2023-04-03T12:43:05;4.75;;;1.73;;
56893;SDS011;43392;50.078;13.704;2023-04-03T12:45:44;6.18;;;2.00;;
56893;SDS011;43392;50.078;13.704;2023-04-03T12:48:15;4.43;;;1.45;;
56893;SDS011;43392;50.078;13.704;2023-04-03T12:50:43;3.55;;;1.40;;
56893;SDS011;43392;50.078;13.704;2023-04-03T12:53:13;3.78;;;1.60;;
56893;SDS011;43392;50.078;13.704;2023-04-03T12:55:43;7.63;;;1.70;;
56893;SDS011;43392;50.078;13.704;2023-04-03T12:58:14;5.78;;;1.77;;
56893;SDS011;43392;50.078;13.704;2023-04-03T13:00:43;5.38;;;1.90;;
56893;SDS011;43392;50.078;13.704;2023-04-03T13:03:19;5.93;;;1.73;;
56893;SDS011;43392;50.078;13.704;2023-04-03T13:05:49;3.85;;;1.80;;
56893;SDS011;43392;50.078;13.704;2023-04-03T13:08:16;4.30;;;1.60;;
56893;SDS011;43392;50.078;13.704;2023-04-03T13:10:50;5.22;;;1.67;;
56893;SDS011;43392;50.078;13.704;2023-04-03T13:13:22;4.80;;;1.55;;
56893;SDS011;43392;50.078;13.704;2023-04-03T13:15:49;4.25;;;1.33;;
56893;SDS011;43392;50.078;13.704;2023-04-03T13:18:21;3.40;;;1.45;;
56893;SDS011;43392;50.078;13.704;2023-04-03T13:20:49;4.95;;;2.03;;
56893;SDS011;43392;50.078;13.704;2023-04-03T13:23:16;6.88;;;1.77;;
56893;SDS011;43392;50.078;13.704;2023-04-03T13:25:47;4.22;;;1.70;;
56893;SDS011;43392;50.078;13.704;2023-04-03T13:28:17;6.40;;;1.73;;
56893;SDS011;43392;50.078;13.704;2023-04-03T13:30:59;5.90;;;1.77;;
56893;SDS011;43392;50.078;13.704;2023-04-03T13:33:30;5.45;;;1.83;;
56893;SDS011;43392;50.078;13.704;2023-04-03T13:36:00;3.72;;;1.73;;
56893;SDS011;43392;50.078;13.704;2023-04-03T13:38:30;4.72;;;2.17;;
56893;SDS011;43392;50.078;13.704;2023-04-03T13:40:59;3.58;;;1.58;;
56893;SDS011;43392;50.078;13.704;2023-04-03T13:43:28;3.88;;;1.88;;
56893;SDS011;43392;50.078;13.704;2023-04-03T13:45:59;5.20;;;1.60;;
56893;SDS011;43392;50.078;13.704;2023-04-03T13:48:34;4.30;;;1.52;;
56893;SDS011;43392;50.078;13.704;2023-04-03T13:51:13;5.85;;;1.90;;
56893;SDS011;43392;50.078;13.704;2023-04-03T13:53:46;3.97;;;1.58;;
56893;SDS011;43392;50.078;13.704;2023-04-03T13:56:19;3.53;;;1.77;;
56893;SDS011;43392;50.078;13.704;2023-04-03T13:58:55;6.95;;;1.80;;
56893;SDS011;43392;50.078;13.704;2023-04-03T14:01:25;4.53;;;2.08;;
56893;SDS011;43392;50.078;13.704;2023-04-03T14:04:01;4.55;;;1.90;;
56893;SDS011;43392;50.078;13.704;2023-04-03T14:06:38;6.30;;;2.05;;
56893;SDS011;43392;50.078;13.704;2023-04-03T14:09:05;4.10;;;1.80;;
56893;SDS011;43392;50.078;13.704;2023-04-03T14:11:32;4.63;;;2.08;;
56893;SDS011;43392;50.078;13.704;2023-04-03T14:14:01;5.57;;;1.70;;
56893;SDS011;43392;50.078;13.704;2023-04-03T14:16:33;4.03;;;1.52;;
56893;SDS011;43392;50.078;13.704;2023-04-03T14:19:05;4.40;;;2.03;;
56893;SDS011;43392;50.078;13.704;2023-04-03T14:21:32;7.25;;;2.33;;
56893;SDS011;43392;50.078;13.704;2023-04-03T14:23:59;6.47;;;2.15;;
56893;SDS011;43392;50.078;13.704;2023-04-03T14:26:28;5.85;;;2.00;;
56893;SDS011;43392;50.078;13.704;2023-04-03T14:28:55;6.28;;;1.80;;
56893;SDS011;43392;50.078;13.704;2023-04-03T14:31:22;3.13;;;1.63;;
56893;SDS011;43392;50.078;13.704;2023-04-03T14:33:51;6.35;;;1.63;;
56893;SDS011;43392;50.078;13.704;2023-04-03T14:36:28;3.42;;;1.77;;
56893;SDS011;43392;50.078;13.704;2023-04-03T14:38:57;6.40;;;2.50;;
56893;SDS011;43392;50.078;13.704;2023-04-03T14:41:24;9.95;;;2.25;;
56893;SDS011;43392;50.078;13.704;2023-04-03T14:43:52;4.25;;;1.52;;
56893;SDS011;43392;50.078;13.704;2023-04-03T14:46:19;4.10;;;1.58;;
56893;SDS011;43392;50.078;13.704;2023-04-03T14:48:51;5.85;;;1.77;;
56893;SDS011;43392;50.078;13.704;2023-04-03T14:51:18;4.75;;;1.50;;
56893;SDS011;43392;50.078;13.704;2023-04-03T14:53:44;6.47;;;1.60;;
56893;SDS011;43392;50.078;13.704;2023-04-03T14:56:12;4.35;;;1.55;;
56893;SDS011;43392;50.078;13.704;2023-04-03T14:58:41;4.60;;;1.60;;
56893;SDS011;43392;50.078;13.704;2023-04-03T15:01:09;5.43;;;1.92;;
56893;SDS011;43392;50.078;13.704;2023-04-03T15:03:36;3.63;;;1.73;;
56893;SDS011;43392;50.078;13.704;2023-04-03T15:06:05;6.63;;;2.00;;
56893;SDS011;43392;50.078;13.704;2023-04-03T15:08:32;4.80;;;1.67;;
56893;SDS011;43392;50.078;13.704;2023-04-03T15:10:58;3.60;;;1.60;;
56893;SDS011;43392;50.078;13.704;2023-04-03T15:13:26;3.78;;;1.60;;